Time;durP1;ratioP1;P1;durP2;ratioP2;P2;SDS_P1;SDS_P2;PMS_P1;PMS_P2;Temp;Humidity;BMP_temperature;BMP_pressure;BME280_temperature;BME280_humidity;BME280_pressure;Samples;Min_cycle;Max_cycle;Signal;HPM_P1;HPM_P2
2023/10/05 00:04:42;;;;;;;4.10;2.70;;;10.40;1.00;;;;;;5038002;28;20461;-85
2023/10/05 00:09:36;;;;;;;4.83;2.53;;;10.70;1.00;;;;;;5028825;28;20584;-78
2023/10/05 00:12:05;;;;;;;4.25;2.80;;;10.80;1.00;;;;;;5030813;28;20395;-77
2023/10/05 00:14:30;;;;;;;4.07;2.50;;;10.80;1.00;;;;;;5031595;28;20767;-78
2023/10/05 00:16:56;;;;;;;3.00;2.60;;;10.50;1.00;;;;;;5013692;28;20414;-77
2023/10/05 00:19:26;;;;;;;3.33;2.40;;;10.70;1.00;;;;;;5031340;28;20399;-77
2023/10/05 00:21:51;;;;;;;3.42;2.20;;;10.70;1.00;;;;;;5031421;28;20893;-77
2023/10/05 00:24:31;;;;;;;3.30;2.50;;;10.70;1.00;;;;;;5030940;28;20446;-78
2023/10/05 00:26:58;;;;;;;2.63;2.20;;;9.60;1.00;;;;;;5005122;28;20429;-78
2023/10/05 00:29:39;;;;;;;4.35;2.75;;;10.60;1.00;;;;;;5031705;28;20449;-78
2023/10/05 00:32:08;;;;;;;3.17;2.63;;;10.60;1.00;;;;;;5014993;28;20430;-78
2023/10/05 00:34:34;;;;;;;3.78;2.42;;;10.50;1.00;;;;;;5032633;28;20402;-78
2023/10/05 00:36:59;;;;;;;3.05;2.72;;;10.50;1.00;;;;;;5022210;28;20412;-78
2023/10/05 00:39:29;;;;;;;2.97;2.42;;;10.20;1.00;;;;;;5018950;28;20380;-78
2023/10/05 00:42:08;;;;;;;4.03;2.67;;;10.20;1.00;;;;;;5013193;28;20449;-78
2023/10/05 00:44:40;;;;;;;3.13;2.40;;;10.30;1.00;;;;;;5012232;28;20404;-78
2023/10/05 00:47:06;;;;;;;4.47;2.80;;;10.40;1.00;;;;;;5013582;28;20397;-79
2023/10/05 00:49:45;;;;;;;3.53;2.60;;;10.50;1.00;;;;;;5016876;28;20486;-78
2023/10/05 00:52:18;;;;;;;3.67;2.55;;;10.10;1.00;;;;;;5016385;28;20381;-77
2023/10/05 00:54:51;;;;;;;4.78;2.50;;;10.00;1.00;;;;;;4999123;28;20417;-77
2023/10/05 00:57:19;;;;;;;3.38;2.50;;;10.00;1.00;;;;;;5000797;28;20888;-77
2023/10/05 00:59:54;;;;;;;3.33;2.13;;;10.10;1.00;;;;;;5014092;28;20479;-79
2023/10/05 01:02:21;;;;;;;3.78;2.70;;;10.00;1.00;;;;;;5012744;28;20752;-78
2023/10/05 01:04:55;;;;;;;2.75;2.35;;;9.90;1.00;;;;;;5015790;28;20438;-78
2023/10/05 01:14:52;;;;;;;3.63;2.55;;;10.40;1.00;;;;;;5012075;28;20483;-77
2023/10/05 01:17:27;;;;;;;3.30;2.40;;;10.70;1.00;;;;;;5013665;28;20397;-77
2023/10/05 01:20:07;;;;;;;3.83;2.53;;;9.70;1.00;;;;;;5028157;28;20482;-77
2023/10/05 01:22:35;;;;;;;5.53;2.60;;;9.90;1.00;;;;;;5013117;28;20729;-77
2023/10/05 01:25:02;;;;;;;3.13;2.78;;;9.70;1.00;;;;;;5033544;28;20406;-78
2023/10/05 01:27:29;;;;;;;3.42;2.67;;;9.80;1.00;;;;;;4994641;28;20421;-77
2023/10/05 01:29:59;;;;;;;4.85;2.70;;;9.90;1.00;;;;;;5019121;28;21118;-77
2023/10/05 01:32:26;;;;;;;4.50;2.88;;;9.60;1.00;;;;;;5049544;28;20925;-77
2023/10/05 01:34:52;;;;;;;3.85;2.30;;;10.00;1.00;;;;;;5034890;28;20395;-78
2023/10/05 01:37:21;;;;;;;2.70;2.45;;;10.00;1.00;;;;;;5032559;28;20445;-78
2023/10/05 01:39:47;;;;;;;3.40;2.63;;;10.10;1.00;;;;;;5001125;28;20404;-78
2023/10/05 01:42:13;;;;;;;4.00;2.87;;;9.80;1.00;;;;;;5012010;28;20383;-78
2023/10/05 01:44:47;;;;;;;3.22;2.60;;;9.60;1.00;;;;;;4995053;28;20424;-78
2023/10/05 01:47:15;;;;;;;3.60;3.00;;;9.80;1.00;;;;;;5011689;28;20396;-78
2023/10/05 01:49:41;;;;;;;2.67;2.30;;;9.90;1.00;;;;;;5011641;28;20415;-78
2023/10/05 01:52:08;;;;;;;3.00;2.40;;;9.90;1.00;;;;;;5011867;28;20389;-78
2023/10/05 01:54:34;;;;;;;4.68;3.10;;;9.80;1.00;;;;;;5010974;28;20461;-78
2023/10/05 01:57:04;;;;;;;4.15;2.67;;;9.80;1.00;;;;;;5013664;28;20387;-78
2023/10/05 01:59:33;;;;;;;2.97;2.42;;;9.50;1.00;;;;;;5018131;28;20397;-78
2023/10/05 02:02:00;;;;;;;2.42;2.22;;;9.80;1.00;;;;;;5011816;28;20389;-79
2023/10/05 02:04:25;;;;;;;2.90;2.30;;;9.60;1.00;;;;;;5027130;28;20895;-78
2023/10/05 02:06:53;;;;;;;4.60;3.17;;;9.80;1.00;;;;;;5013088;28;20404;-78
2023/10/05 02:09:21;;;;;;;5.28;2.58;;;9.80;1.00;;;;;;5013274;28;20421;-78
2023/10/05 02:11:48;;;;;;;4.30;3.00;;;9.90;1.00;;;;;;5018098;28;20932;-77
2023/10/05 02:14:16;;;;;;;4.68;2.70;;;10.00;1.00;;;;;;5012319;28;20392;-79
2023/10/05 02:16:45;;;;;;;3.45;2.33;;;9.90;1.00;;;;;;5010321;28;20889;-78
2023/10/05 02:19:14;;;;;;;3.90;2.53;;;9.80;1.00;;;;;;4996769;28;20547;-78
2023/10/05 02:21:39;;;;;;;3.00;2.30;;;9.70;1.00;;;;;;5029708;28;20422;-78
2023/10/05 02:24:16;;;;;;;4.20;2.50;;;9.60;1.00;;;;;;5029787;28;20863;-77
2023/10/05 02:29:24;;;;;;;3.63;2.80;;;10.00;1.00;;;;;;5011308;28;20396;-78
2023/10/05 02:34:59;;;;;;;2.75;2.30;;;9.70;1.00;;;;;;5011983;28;20531;-78
2023/10/05 02:37:28;;;;;;;3.30;2.88;;;10.00;1.00;;;;;;4998973;28;20408;-78
2023/10/05 02:39:54;;;;;;;4.65;2.70;;;9.80;1.00;;;;;;5015000;28;20393;-77
2023/10/05 02:42:22;;;;;;;4.28;2.50;;;9.80;1.00;;;;;;5016249;28;20864;-77
2023/10/05 02:44:49;;;;;;;2.60;2.40;;;10.00;1.00;;;;;;5013258;28;20513;-78
2023/10/05 02:47:22;;;;;;;2.50;2.30;;;10.00;1.00;;;;;;5019350;28;20410;-78
2023/10/05 02:49:48;;;;;;;4.03;2.40;;;9.80;1.00;;;;;;5021014;28;20746;-78
2023/10/05 02:52:16;;;;;;;3.83;2.50;;;9.80;1.00;;;;;;5011615;28;20757;-78
2023/10/05 02:54:42;;;;;;;8.00;2.25;;;9.60;1.00;;;;;;5001121;28;20402;-78
2023/10/05 02:57:14;;;;;;;2.80;2.50;;;9.90;1.00;;;;;;5031058;28;20399;-78
2023/10/05 02:59:40;;;;;;;3.55;2.35;;;9.80;1.00;;;;;;5013091;28;20474;-78
2023/10/05 03:02:07;;;;;;;3.47;2.70;;;9.70;1.00;;;;;;5030735;28;20859;-78
2023/10/05 03:04:45;;;;;;;5.32;2.60;;;9.80;1.00;;;;;;5007392;28;20412;-78
2023/10/05 03:07:15;;;;;;;3.08;2.35;;;9.70;1.00;;;;;;5012524;28;20455;-78
2023/10/05 03:09:46;;;;;;;2.70;2.50;;;9.60;1.00;;;;;;5014406;28;20393;-78
2023/10/05 03:12:12;;;;;;;3.38;2.50;;;9.90;1.00;;;;;;4996172;28;20400;-78
2023/10/05 03:14:38;;;;;;;3.75;2.60;;;9.60;1.00;;;;;;4996814;28;20385;-78
2023/10/05 03:17:12;;;;;;;3.45;2.10;;;9.90;1.00;;;;;;5020495;28;20396;-77
2023/10/05 03:19:39;;;;;;;4.25;2.45;;;9.90;1.00;;;;;;5026945;28;20389;-78
2023/10/05 03:22:07;;;;;;;2.65;2.20;;;9.80;1.00;;;;;;5034476;28;20744;-78
2023/10/05 03:24:34;;;;;;;4.60;2.80;;;9.50;1.00;;;;;;5018459;28;20506;-78
2023/10/05 03:27:03;;;;;;;3.70;2.50;;;9.60;1.00;;;;;;5014609;28;20404;-78
2023/10/05 03:29:30;;;;;;;2.88;2.42;;;9.70;1.00;;;;;;5014089;28;20853;-78
2023/10/05 03:32:13;;;;;;;3.38;2.40;;;10.50;1.00;;;;;;5022924;28;20402;-78
2023/10/05 03:34:48;;;;;;;2.65;2.45;;;9.70;1.00;;;;;;5016726;28;20452;-78
2023/10/05 03:37:15;;;;;;;3.05;2.40;;;9.70;1.00;;;;;;5016767;28;20391;-78
2023/10/05 03:39:53;;;;;;;4.05;2.97;;;9.90;1.00;;;;;;5034098;28;20391;-78
2023/10/05 03:42:22;;;;;;;4.20;2.30;;;9.80;1.00;;;;;;5006296;28;20408;-78
2023/10/05 03:45:04;;;;;;;2.30;2.10;;;9.80;1.00;;;;;;5014451;28;20407;-78
2023/10/05 03:47:39;;;;;;;3.75;2.70;;;10.00;1.00;;;;;;5014447;28;20475;-78
2023/10/05 03:50:16;;;;;;;2.97;2.40;;;10.00;1.00;;;;;;5014423;28;20863;-78
2023/10/05 03:52:44;;;;;;;3.00;2.70;;;9.90;1.00;;;;;;5023836;28;20395;-76
2023/10/05 03:55:11;;;;;;;3.17;2.60;;;9.90;1.00;;;;;;5036484;28;20410;-78
2023/10/05 03:57:38;;;;;;;4.30;2.60;;;9.90;1.00;;;;;;5041234;28;20786;-77
2023/10/05 04:00:30;;;;;;;5.10;2.60;;;10.30;1.00;;;;;;5035167;28;20394;-79
2023/10/05 04:02:57;;;;;;;3.10;2.33;;;10.20;1.00;;;;;;5014393;28;20984;-78
2023/10/05 04:05:23;;;;;;;2.92;2.60;;;10.00;1.00;;;;;;5015163;28;20404;-78
2023/10/05 04:07:50;;;;;;;3.03;2.50;;;10.30;1.00;;;;;;5015796;28;20399;-78
2023/10/05 04:10:45;;;;;;;3.75;2.88;;;10.10;1.00;;;;;;5002518;28;20401;-78
2023/10/05 04:13:12;;;;;;;3.42;2.45;;;10.30;1.00;;;;;;5033413;28;20469;-78
2023/10/05 04:15:41;;;;;;;4.97;2.88;;;10.00;1.00;;;;;;5033125;28;20434;-78
2023/10/05 04:18:15;;;;;;;3.38;2.55;;;10.00;1.00;;;;;;5017246;28;20470;-78
2023/10/05 04:20:43;;;;;;;3.90;2.50;;;10.30;1.00;;;;;;5018061;28;20389;-78
2023/10/05 04:23:10;;;;;;;3.85;2.80;;;10.00;1.00;;;;;;5013886;28;20928;-78
2023/10/05 04:25:35;;;;;;;3.97;2.80;;;10.00;1.00;;;;;;5030800;28;20474;-78
2023/10/05 04:28:01;;;;;;;3.20;2.90;;;10.00;1.00;;;;;;5033134;28;20921;-78
2023/10/05 04:30:27;;;;;;;3.30;2.80;;;10.70;1.00;;;;;;5033433;28;20745;-78
2023/10/05 04:32:53;;;;;;;3.00;2.70;;;10.10;1.00;;;;;;5027857;28;20397;-78
2023/10/05 04:35:23;;;;;;;2.90;2.50;;;10.20;1.00;;;;;;5013048;28;20956;-78
2023/10/05 04:37:52;;;;;;;4.40;2.80;;;9.90;1.00;;;;;;5013492;28;20385;-78
2023/10/05 04:40:20;;;;;;;3.53;2.80;;;9.90;1.00;;;;;;5013473;28;20477;-78
2023/10/05 04:42:45;;;;;;;3.22;2.90;;;9.80;1.00;;;;;;5016517;28;20399;-78
2023/10/05 04:45:14;;;;;;;3.13;2.83;;;9.60;1.00;;;;;;4996209;28;20389;-78
2023/10/05 04:47:39;;;;;;;3.80;2.63;;;10.20;1.00;;;;;;5018080;28;20394;-78
2023/10/05 04:50:13;;;;;;;2.95;2.58;;;10.70;1.00;;;;;;5044754;28;20903;-78
2023/10/05 04:52:39;;;;;;;5.00;2.85;;;9.60;1.00;;;;;;5039472;28;20906;-78
2023/10/05 04:55:23;;;;;;;3.28;2.97;;;9.80;1.00;;;;;;5037036;28;20889;-78
2023/10/05 04:58:15;;;;;;;3.58;2.97;;;9.90;1.00;;;;;;5033354;28;20530;-78
2023/10/05 05:08:35;;;;;;;5.40;3.20;;;9.30;1.00;;;;;;5022559;28;20399;-78
2023/10/05 05:11:00;;;;;;;7.20;3.10;;;9.40;1.00;;;;;;4996180;28;20464;-78
2023/10/05 05:13:27;;;;;;;4.50;2.93;;;9.50;1.00;;;;;;5027239;28;20403;-78
2023/10/05 05:15:53;;;;;;;3.80;2.83;;;9.60;1.00;;;;;;5022883;28;20403;-78
2023/10/05 05:18:19;;;;;;;3.78;2.88;;;9.80;1.00;;;;;;4996114;28;20393;-78
2023/10/05 05:20:45;;;;;;;3.75;2.70;;;9.90;1.00;;;;;;5032215;28;20549;-78
2023/10/05 05:23:16;;;;;;;4.13;2.80;;;9.70;1.00;;;;;;5037150;28;20396;-78
2023/10/05 05:25:42;;;;;;;3.40;3.00;;;9.60;1.00;;;;;;5034068;28;21022;-78
2023/10/05 05:28:09;;;;;;;3.42;2.80;;;9.40;1.00;;;;;;5030778;28;20399;-77
2023/10/05 05:30:36;;;;;;;3.00;2.53;;;9.60;1.00;;;;;;5033881;28;20401;-78
2023/10/05 05:33:09;;;;;;;3.40;2.80;;;9.50;1.00;;;;;;5044527;28;20883;-77
2023/10/05 05:35:42;;;;;;;7.60;3.50;;;10.20;1.00;;;;;;5020344;28;20408;-77
2023/10/05 05:38:11;;;;;;;3.45;2.45;;;9.90;1.00;;;;;;5027472;28;20402;-78
2023/10/05 05:40:38;;;;;;;3.30;2.80;;;9.90;1.00;;;;;;5032311;28;20383;-78
2023/10/05 05:43:08;;;;;;;3.60;2.60;;;9.60;1.00;;;;;;5033522;28;20414;-77
2023/10/05 05:45:34;;;;;;;3.33;2.80;;;9.80;1.00;;;;;;5032513;28;20423;-77
2023/10/05 05:48:00;;;;;;;3.10;2.80;;;9.90;1.00;;;;;;5007905;28;20416;-77
2023/10/05 05:50:29;;;;;;;4.30;3.30;;;9.90;1.00;;;;;;5042045;28;20393;-78
2023/10/05 05:52:56;;;;;;;3.38;2.90;;;9.60;1.00;;;;;;5035352;28;20805;-77
2023/10/05 05:55:22;;;;;;;4.20;2.70;;;9.70;1.00;;;;;;5002507;28;20435;-78
2023/10/05 05:57:50;;;;;;;4.50;3.17;;;10.00;1.00;;;;;;5026186;28;20391;-77
2023/10/05 06:00:18;;;;;;;3.30;2.85;;;9.90;1.00;;;;;;5005489;28;20491;-77
2023/10/05 06:02:44;;;;;;;3.60;2.80;;;10.10;1.00;;;;;;5015419;28;20387;-78
2023/10/05 06:05:13;;;;;;;3.80;3.10;;;9.70;1.00;;;;;;5025799;28;20792;-78
2023/10/05 06:07:40;;;;;;;4.10;2.80;;;9.90;1.00;;;;;;5047085;22;20467;-84
2023/10/05 06:10:14;;;;;;;3.17;2.53;;;9.70;1.00;;;;;;5018101;28;20479;-84
2023/10/05 06:12:45;;;;;;;2.83;2.45;;;10.50;1.00;;;;;;5016135;28;20374;-84
2023/10/05 06:15:13;;;;;;;4.05;2.90;;;10.20;1.00;;;;;;5031453;28;20389;-84
2023/10/05 06:17:39;;;;;;;3.50;2.70;;;9.70;1.00;;;;;;5020854;28;20404;-84
2023/10/05 06:20:13;;;;;;;3.78;2.70;;;9.90;1.00;;;;;;5000342;28;20532;-84
2023/10/05 06:22:41;;;;;;;3.50;2.60;;;10.30;1.00;;;;;;4995425;28;20414;-84
2023/10/05 06:25:09;;;;;;;3.35;2.85;;;9.90;1.00;;;;;;4996552;28;20768;-84
2023/10/05 06:27:37;;;;;;;3.60;2.97;;;10.20;1.00;;;;;;4993164;28;20972;-84
2023/10/05 06:30:06;;;;;;;3.35;2.55;;;10.00;1.00;;;;;;5001916;28;20418;-84
2023/10/05 06:32:31;;;;;;;4.07;2.90;;;10.50;1.00;;;;;;4998875;28;20394;-83
2023/10/05 06:34:57;;;;;;;3.47;3.13;;;10.30;1.00;;;;;;5011093;28;20408;-83
2023/10/05 06:37:25;;;;;;;2.97;2.60;;;10.30;1.00;;;;;;4994078;28;20409;-84
2023/10/05 06:39:53;;;;;;;2.80;2.53;;;11.50;1.00;;;;;;4992349;28;20399;-83
2023/10/05 06:42:19;;;;;;;3.63;2.70;;;12.60;1.00;;;;;;4998454;28;20452;-84
2023/10/05 06:44:45;;;;;;;4.70;3.30;;;10.50;1.00;;;;;;5001923;28;20406;-84
2023/10/05 06:47:36;;;;;;;5.40;3.40;;;10.40;1.00;;;;;;5004084;28;20760;-84
2023/10/05 06:49:56;;;;;;;3.40;2.55;;;10.90;1.00;;;;;;5002700;28;20878;-84
2023/10/05 06:52:22;;;;;;;3.40;2.70;;;10.60;1.00;;;;;;5016196;28;20423;-84
2023/10/05 06:54:47;;;;;;;7.30;2.85;;;10.50;1.00;;;;;;5022517;28;20389;-85
2023/10/05 06:57:13;;;;;;;4.10;3.00;;;10.80;1.00;;;;;;5024283;28;20417;-85
2023/10/05 06:59:42;;;;;;;3.20;2.80;;;10.90;1.00;;;;;;4998698;28;20394;-85
2023/10/05 07:02:08;;;;;;;3.42;2.60;;;10.90;1.00;;;;;;5001142;28;20482;-85
2023/10/05 07:04:34;;;;;;;4.18;2.70;;;12.00;1.00;;;;;;5000868;28;20887;-85
2023/10/05 07:07:00;;;;;;;4.68;3.00;;;13.20;1.00;;;;;;5003214;28;20407;-84
2023/10/05 07:09:26;;;;;;;4.30;2.87;;;11.00;1.00;;;;;;5003914;28;20421;-84
2023/10/05 07:11:52;;;;;;;4.03;2.97;;;11.90;1.00;;;;;;5001770;28;20398;-85
2023/10/05 07:14:19;;;;;;;2.85;2.55;;;11.70;1.00;;;;;;5017129;28;20510;-85
2023/10/05 07:16:45;;;;;;;4.10;2.70;;;11.30;1.00;;;;;;5029583;28;20470;-85
2023/10/05 07:19:11;;;;;;;4.03;2.70;;;11.60;1.00;;;;;;5022934;28;20383;-85
2023/10/05 07:21:37;;;;;;;2.80;2.50;;;11.30;1.00;;;;;;5007536;28;20402;-85
2023/10/05 07:24:04;;;;;;;4.13;2.80;;;11.10;1.00;;;;;;5006362;28;20402;-85
2023/10/05 07:26:30;;;;;;;5.28;3.08;;;11.90;1.00;;;;;;5007075;28;20394;-85
2023/10/05 07:28:55;;;;;;;3.50;2.92;;;11.70;1.00;;;;;;5004751;28;20402;-85
2023/10/05 07:31:22;;;;;;;3.85;2.90;;;12.00;1.00;;;;;;5006847;28;20480;-85
2023/10/05 07:33:48;;;;;;;3.47;2.42;;;12.10;1.00;;;;;;5004727;28;20921;-85
2023/10/05 07:36:14;;;;;;;3.00;2.70;;;12.00;1.00;;;;;;5004861;28;20390;-85
2023/10/05 07:38:40;;;;;;;5.43;3.30;;;11.80;1.00;;;;;;5025754;28;20396;-86
2023/10/05 07:41:07;;;;;;;4.47;3.00;;;12.00;1.00;;;;;;5023080;28;20423;-85
2023/10/05 07:43:34;;;;;;;3.55;2.33;;;12.10;1.00;;;;;;5024057;28;20413;-85
2023/10/05 07:46:04;;;;;;;4.22;2.70;;;12.30;1.00;;;;;;5025026;28;20389;-85
2023/10/05 07:48:31;;;;;;;3.42;2.63;;;12.40;1.00;;;;;;5022257;28;20400;-85
2023/10/05 07:50:57;;;;;;;3.53;3.10;;;12.50;1.00;;;;;;5022837;28;20396;-85
2023/10/05 07:53:22;;;;;;;6.40;3.10;;;12.80;1.00;;;;;;5023627;28;20769;-85
2023/10/05 07:55:48;;;;;;;3.40;3.10;;;12.70;1.00;;;;;;5039418;28;20384;-85
2023/10/05 07:58:14;;;;;;;2.57;2.30;;;12.60;1.00;;;;;;5000534;28;20427;-85
2023/10/05 08:00:39;;;;;;;3.50;2.80;;;14.60;1.00;;;;;;5002200;28;20394;-85
2023/10/05 08:03:05;;;;;;;4.03;2.75;;;12.50;1.00;;;;;;5017264;28;20426;-84
2023/10/05 08:05:31;;;;;;;5.00;3.00;;;13.50;1.00;;;;;;5018910;28;20425;-84
2023/10/05 08:07:58;;;;;;;3.85;2.60;;;14.90;1.00;;;;;;5018405;28;20397;-84
2023/10/05 08:10:23;;;;;;;4.97;2.80;;;13.30;1.00;;;;;;5016286;28;20396;-84
2023/10/05 08:12:49;;;;;;;4.45;2.50;;;13.10;1.00;;;;;;5013280;28;20392;-84
2023/10/05 08:15:18;;;;;;;4.63;2.60;;;14.10;1.00;;;;;;5012304;28;20804;-84
2023/10/05 08:17:45;;;;;;;4.40;2.63;;;13.10;1.00;;;;;;5012256;28;20459;-84
2023/10/05 08:20:11;;;;;;;3.53;3.10;;;13.20;1.00;;;;;;5002247;28;20401;-84
2023/10/05 08:22:38;;;;;;;3.95;3.08;;;13.20;1.00;;;;;;4995035;28;20901;-84
2023/10/05 08:25:12;;;;;;;4.25;3.38;;;13.20;1.00;;;;;;4993985;28;20449;-85
2023/10/05 08:27:39;;;;;;;4.60;3.28;;;13.60;1.00;;;;;;4996660;28;20989;-84
2023/10/05 08:30:08;;;;;;;6.53;3.70;;;13.60;1.00;;;;;;5012106;28;20389;-84
2023/10/05 08:32:34;;;;;;;6.18;3.47;;;13.20;1.00;;;;;;5014180;28;20484;-85
2023/10/05 08:35:07;;;;;;;5.40;3.13;;;13.40;1.00;;;;;;5012727;28;20872;-84
2023/10/05 08:37:34;;;;;;;7.22;3.40;;;13.60;1.00;;;;;;5013633;28;20400;-84
2023/10/05 08:39:59;;;;;;;3.95;3.10;;;13.70;1.00;;;;;;5014169;28;20413;-84
2023/10/05 08:42:27;;;;;;;5.27;2.80;;;13.30;1.00;;;;;;5006052;28;20418;-84
2023/10/05 08:44:53;;;;;;;5.07;3.50;;;13.70;1.00;;;;;;5001959;28;20402;-84
2023/10/05 08:47:21;;;;;;;5.22;3.80;;;14.30;1.00;;;;;;5002368;28;20387;-85
2023/10/05 08:49:49;;;;;;;3.60;3.00;;;13.50;1.00;;;;;;5001389;28;20387;-84
2023/10/05 08:52:20;;;;;;;4.50;3.70;;;14.20;1.00;;;;;;5004387;28;20414;-82
2023/10/05 08:54:47;;;;;;;6.47;3.90;;;13.70;1.00;;;;;;5012161;28;20437;-85
2023/10/05 08:57:14;;;;;;;5.50;4.10;;;13.80;1.00;;;;;;5007754;28;20883;-85
2023/10/05 08:59:45;;;;;;;5.85;4.50;;;14.10;1.00;;;;;;5006061;28;20402;-84
2023/10/05 09:02:11;;;;;;;5.97;4.20;;;13.90;1.00;;;;;;5024809;28;20388;-85
2023/10/05 09:04:43;;;;;;;5.50;4.22;;;13.80;1.00;;;;;;5025019;28;20472;-85
2023/10/05 09:07:25;;;;;;;4.97;3.75;;;13.40;1.00;;;;;;5023705;28;20533;-85
2023/10/05 09:09:54;;;;;;;4.78;4.28;;;15.60;1.00;;;;;;5023729;28;20404;-85
2023/10/05 09:12:46;;;;;;;5.30;3.58;;;14.60;1.00;;;;;;5005804;28;20962;-84
2023/10/05 09:15:22;;;;;;;3.50;3.20;;;15.10;1.00;;;;;;5006328;28;20783;-85
2023/10/05 09:18:05;;;;;;;4.63;3.30;;;14.20;1.00;;;;;;5019501;28;20389;-84
2023/10/05 09:20:33;;;;;;;5.07;3.38;;;15.00;1.00;;;;;;5004371;28;20481;-84
2023/10/05 09:23:07;;;;;;;4.10;3.00;;;14.20;1.00;;;;;;5009590;28;20374;-83
2023/10/05 09:25:44;;;;;;;4.70;3.10;;;14.50;1.00;;;;;;5013793;28;20433;-83
2023/10/05 09:28:14;;;;;;;5.50;3.85;;;14.50;1.00;;;;;;5012855;28;20413;-83
2023/10/05 09:30:55;;;;;;;4.72;3.13;;;14.50;1.00;;;;;;5013402;28;20406;-83
2023/10/05 09:33:34;;;;;;;4.50;3.10;;;14.90;1.00;;;;;;5012831;28;20378;-84
2023/10/05 09:36:16;;;;;;;4.00;3.20;;;16.00;1.00;;;;;;5013309;28;20427;-84
2023/10/05 09:38:46;;;;;;;3.97;2.87;;;15.20;1.00;;;;;;5026971;28;20448;-84
2023/10/05 09:41:17;;;;;;;2.95;2.60;;;17.00;1.00;;;;;;5022679;28;21062;-85
2023/10/05 09:43:44;;;;;;;4.40;3.05;;;15.80;1.00;;;;;;5009480;28;20491;-85
2023/10/05 09:46:10;;;;;;;3.80;2.80;;;15.60;1.00;;;;;;5014068;28;20423;-85
2023/10/05 09:48:39;;;;;;;3.47;2.77;;;15.30;1.00;;;;;;5014737;28;20401;-85
2023/10/05 09:51:10;;;;;;;3.30;2.50;;;15.50;1.00;;;;;;4999345;28;20394;-85
2023/10/05 09:53:38;;;;;;;4.50;2.95;;;15.20;1.00;;;;;;4988473;28;20395;-84
2023/10/05 09:56:04;;;;;;;3.72;2.67;;;17.20;1.00;;;;;;4991277;28;20413;-86
2023/10/05 09:58:30;;;;;;;4.70;2.80;;;15.40;1.00;;;;;;5003922;28;20390;-83
2023/10/05 10:00:56;;;;;;;5.03;2.78;;;17.30;1.00;;;;;;4992727;28;20392;-83
2023/10/05 10:03:23;;;;;;;5.00;2.70;;;15.90;1.00;;;;;;5000836;28;20405;-83
2023/10/05 10:06:08;;;;;;;4.70;2.92;;;15.20;1.00;;;;;;4994045;28;20485;-84
2023/10/05 10:08:35;;;;;;;5.25;2.80;;;17.50;1.00;;;;;;4993301;28;20400;-83
2023/10/05 10:11:07;;;;;;;4.35;2.60;;;14.80;1.00;;;;;;4996729;28;20395;-84
2023/10/05 10:13:39;;;;;;;4.93;3.10;;;16.10;1.00;;;;;;5000012;28;20394;-84
2023/10/05 10:16:22;;;;;;;4.20;2.40;;;15.00;1.00;;;;;;4991110;28;20401;-82
2023/10/05 10:18:52;;;;;;;3.70;2.70;;;15.10;1.00;;;;;;4995126;28;20788;-83
2023/10/05 10:21:25;;;;;;;4.80;3.00;;;16.30;1.00;;;;;;5004642;28;20390;-84
2023/10/05 10:24:04;;;;;;;3.90;2.67;;;15.50;1.00;;;;;;4990044;28;20755;-83
2023/10/05 10:26:30;;;;;;;5.38;3.03;;;15.30;1.00;;;;;;5006458;28;20612;-84
2023/10/05 10:28:56;;;;;;;4.78;2.80;;;15.30;1.00;;;;;;5003148;28;20400;-82
2023/10/05 10:31:30;;;;;;;3.90;2.70;;;15.30;1.00;;;;;;4986008;28;20843;-85
2023/10/05 10:34:08;;;;;;;2.80;2.42;;;15.30;1.00;;;;;;5004833;28;20429;-82
2023/10/05 10:36:51;;;;;;;3.50;2.70;;;15.40;1.00;;;;;;4993388;28;20404;-85
2023/10/05 10:39:27;;;;;;;3.35;2.70;;;15.50;1.00;;;;;;4999853;28;20872;-84
2023/10/05 10:42:19;;;;;;;4.20;2.50;;;17.80;1.00;;;;;;4984341;28;20404;-84
2023/10/05 10:47:17;;;;;;;3.55;2.30;;;16.20;1.00;;;;;;5002103;28;20398;-86
2023/10/05 10:50:00;;;;;;;5.70;2.50;;;18.00;1.00;;;;;;4985429;28;21025;-85
2023/10/05 10:52:26;;;;;;;2.95;1.90;;;18.60;1.00;;;;;;4991098;28;20740;-83
2023/10/05 10:54:57;;;;;;;3.20;2.10;;;17.70;1.00;;;;;;4991989;28;20386;-84
2023/10/05 10:57:23;;;;;;;5.13;2.50;;;16.80;1.00;;;;;;4984169;28;20492;-86
2023/10/05 11:00:37;;;;;;;3.25;2.47;;;16.50;1.00;;;;;;4996521;28;20420;-85
2023/10/05 11:02:38;;;;;;;3.90;2.60;;;16.40;1.00;;;;;;4991859;28;20476;-85
2023/10/05 11:05:05;;;;;;;3.30;2.40;;;17.80;1.00;;;;;;4987053;28;20400;-85
2023/10/05 11:07:31;;;;;;;3.70;2.60;;;16.50;1.00;;;;;;4999961;28;20420;-85
2023/10/05 11:09:59;;;;;;;3.60;2.40;;;18.80;1.00;;;;;;4987751;28;20391;-86
2023/10/05 11:12:26;;;;;;;3.50;2.20;;;17.90;1.00;;;;;;4991932;28;20384;-85
2023/10/05 11:15:08;;;;;;;4.35;2.33;;;16.80;1.00;;;;;;4995812;28;20394;-84
2023/10/05 11:17:44;;;;;;;2.40;2.20;;;18.30;1.00;;;;;;4985801;28;20396;-85
2023/10/05 11:20:27;;;;;;;3.90;2.20;;;17.30;1.00;;;;;;4988597;28;20438;-86
2023/10/05 11:23:01;;;;;;;3.03;2.20;;;17.10;1.00;;;;;;4994228;28;20445;-85
2023/10/05 11:25:35;;;;;;;5.75;2.35;;;18.70;1.00;;;;;;4986528;28;20452;-85
2023/10/05 11:28:07;;;;;;;7.28;2.40;;;18.50;1.00;;;;;;4993849;28;20392;-86
2023/10/05 11:30:45;;;;;;;3.28;2.50;;;16.80;1.00;;;;;;4991057;28;20391;-85
2023/10/05 11:33:20;;;;;;;4.03;1.90;;;17.20;1.00;;;;;;4985314;28;20451;-85
2023/10/05 11:35:51;;;;;;;3.63;2.10;;;18.80;1.00;;;;;;4999363;28;20394;-86
2023/10/05 11:38:19;;;;;;;3.35;2.20;;;18.20;1.00;;;;;;4996345;28;20417;-85
2023/10/05 11:40:56;;;;;;;3.60;2.20;;;20.80;1.00;;;;;;4984720;28;20396;-82
2023/10/05 11:43:26;;;;;;;3.25;2.30;;;19.80;1.00;;;;;;4988157;28;20780;-81
2023/10/05 11:45:59;;;;;;;3.78;2.10;;;19.40;1.00;;;;;;4994395;28;20401;-84
2023/10/05 11:48:48;;;;;;;2.28;1.70;;;20.40;1.00;;;;;;4990878;28;20394;-83
2023/10/05 11:51:16;;;;;;;4.37;2.00;;;19.30;1.00;;;;;;4994274;28;20916;-84
2023/10/05 11:53:43;;;;;;;3.60;2.20;;;22.00;1.00;;;;;;4994837;28;20400;-81
2023/10/05 11:56:09;;;;;;;3.80;2.40;;;21.60;1.00;;;;;;4986881;28;20778;-83
2023/10/05 11:58:40;;;;;;;4.90;2.42;;;19.90;1.00;;;;;;4995758;28;20921;-83
2023/10/05 12:01:06;;;;;;;2.57;2.00;;;20.70;1.00;;;;;;4980924;28;20396;-83
2023/10/05 12:03:32;;;;;;;4.27;2.00;;;20.50;1.00;;;;;;4990695;28;20409;-83
2023/10/05 12:06:02;;;;;;;3.90;2.23;;;19.50;1.00;;;;;;4992179;28;20460;-84
2023/10/05 12:08:29;;;;;;;3.60;1.80;;;20.10;1.00;;;;;;5013017;23;20450;-83
2023/10/05 12:10:59;;;;;;;2.70;1.70;;;20.00;1.00;;;;;;5025659;28;20397;-85
2023/10/05 12:13:26;;;;;;;3.95;2.17;;;19.50;1.00;;;;;;5001421;28;20408;-84
2023/10/05 12:15:51;;;;;;;2.38;1.90;;;20.60;1.00;;;;;;4999258;28;20392;-84
2023/10/05 12:18:17;;;;;;;4.22;2.45;;;19.90;1.00;;;;;;5018772;28;20393;-84
2023/10/05 12:20:43;;;;;;;3.33;2.00;;;20.20;1.00;;;;;;4998921;28;20500;-85
2023/10/05 12:23:14;;;;;;;3.58;1.90;;;21.40;1.00;;;;;;5000401;28;20428;-85
2023/10/05 12:25:44;;;;;;;5.38;2.30;;;21.20;1.00;;;;;;5001001;28;20393;-85
2023/10/05 12:28:11;;;;;;;2.67;2.03;;;20.00;1.00;;;;;;4977656;28;20415;-85
2023/10/05 12:30:39;;;;;;;3.88;1.90;;;23.00;1.00;;;;;;4983358;28;20393;-85
2023/10/05 12:33:04;;;;;;;2.40;1.77;;;21.70;1.00;;;;;;5015636;28;20396;-85
2023/10/05 12:35:30;;;;;;;3.93;2.00;;;21.10;1.00;;;;;;4999544;28;20397;-85
2023/10/05 12:37:58;;;;;;;3.30;2.00;;;19.80;1.00;;;;;;5019954;28;20781;-84
2023/10/05 12:40:33;;;;;;;3.85;2.00;;;22.50;1.00;;;;;;5016238;28;20773;-86
2023/10/05 12:42:59;;;;;;;3.13;1.90;;;21.30;1.00;;;;;;5012971;28;20401;-84
2023/10/05 12:45:25;;;;;;;3.50;2.10;;;21.00;1.00;;;;;;5014443;28;20401;-84
2023/10/05 12:47:53;;;;;;;3.88;2.30;;;19.80;1.00;;;;;;5015162;28;20915;-86
2023/10/05 12:50:20;;;;;;;2.70;1.80;;;19.40;1.00;;;;;;5014755;28;20463;-85
2023/10/05 12:52:50;;;;;;;3.05;2.17;;;20.80;1.00;;;;;;4977508;28;20382;-86
2023/10/05 12:55:18;;;;;;;2.00;1.80;;;21.70;1.00;;;;;;4981314;28;20398;-86
2023/10/05 12:57:44;;;;;;;3.83;2.17;;;19.20;1.00;;;;;;4977279;28;20394;-85
2023/10/05 13:00:19;;;;;;;2.30;1.63;;;21.10;1.00;;;;;;4977524;28;20394;-86
2023/10/05 13:02:55;;;;;;;3.40;1.95;;;18.40;1.00;;;;;;4975017;28;20841;-86
2023/10/05 13:05:23;;;;;;;3.47;1.88;;;17.90;1.00;;;;;;4994342;28;20387;-84
2023/10/05 13:07:50;;;;;;;3.28;2.05;;;19.20;1.00;;;;;;4999394;28;20769;-85
2023/10/05 13:10:30;;;;;;;4.13;2.10;;;18.60;1.00;;;;;;5010333;28;20453;-88
2023/10/05 13:13:09;;;;;;;2.95;1.77;;;18.90;1.00;;;;;;4991381;28;20459;-87
2023/10/05 13:15:35;;;;;;;2.97;2.03;;;20.30;1.00;;;;;;5016282;28;20388;-86
2023/10/05 13:18:20;;;;;;;3.97;2.30;;;20.10;1.00;;;;;;4996485;28;20569;-86
2023/10/05 13:20:54;;;;;;;4.60;2.40;;;20.80;1.00;;;;;;4995911;28;20468;-86
2023/10/05 13:23:21;;;;;;;3.25;2.00;;;18.30;1.00;;;;;;4991501;28;20417;-86
2023/10/05 13:25:49;;;;;;;2.95;2.28;;;20.50;1.00;;;;;;5014230;28;20400;-86
2023/10/05 13:28:24;;;;;;;2.40;1.63;;;;;;;;;;4989966;23;22353;-85
2023/10/05 13:31:20;;;;;;;2.77;2.00;;;18.30;1.00;;;;;;5031818;28;20550;-86
2023/10/05 13:33:49;;;;;;;4.50;2.10;;;18.30;1.00;;;;;;5028032;28;20399;-86
2023/10/05 13:37:12;;;;;;;;;;;;;;;;;;;;;
2023/10/05 13:39:44;;;;;;;3.25;2.30;;;18.10;1.00;;;;;;5030554;28;20458;-86
2023/10/05 13:42:10;;;;;;;4.22;2.38;;;15.70;1.00;;;;;;5065576;22;20421;-80
2023/10/05 13:44:36;;;;;;;3.93;2.00;;;18.10;1.00;;;;;;5068458;28;21010;-80